Flight Track Log - Related Links

Times and Time Zones

All times are in EDT time to prevent confusion due to time zone crossing. See the DAL110 flight status page for this flight to view local times or setup timezone preferences in your user account.

Time Position Orientation Groundspeed Altitude Reporting Facility
EDT Latitude Longitude Course Direction KTS MPH feet Rate Location/Type
Sun 21:12:00 -34.7110 -58.5816 339° North  Level FlightAware Approximate
Sun 21:13:00 -34.5986 -58.6343 339° North  Level FlightAware Approximate
Sun 21:14:00 -34.4861 -58.6868 339° North  Level FlightAware Approximate
Sun 21:15:00 -34.3736 -58.7392 339° North  Level FlightAware Approximate
Sun 21:16:00 -34.2611 -58.7915 339° North  Level FlightAware Approximate
Sun 21:17:00 -34.1486 -58.8436 339° North  Level FlightAware Approximate
Sun 21:18:00 -34.0360 -58.8955 339° North  Level FlightAware Approximate
Sun 21:19:00 -33.9235 -58.9474 339° North  Level FlightAware Approximate
Sun 21:20:00 -33.8108 -58.9991 339° North  Level FlightAware Approximate
Sun 21:21:00 -33.6982 -59.0506 339° North  Level FlightAware Approximate
Sun 21:22:00 -33.5856 -59.1020 339° North  Level FlightAware Approximate
Sun 21:23:00 -33.4729 -59.1533 339° North  Level FlightAware Approximate
Sun 21:24:00 -33.3602 -59.2045 339° North  Level FlightAware Approximate
Sun 21:25:00 -33.2453 -59.2568 339° North  Level FlightAware Approximate
Sun 21:26:00 -33.1328 -59.3079 339° North  Level FlightAware Approximate
Sun 21:27:00 -33.0203 -59.3589 339° North  Level FlightAware Approximate
Sun 21:28:00 -32.9078 -59.4097 339° North  Level FlightAware Approximate
Sun 21:29:00 -32.7953 -59.4604 339° North  Level FlightAware Approximate
Sun 21:30:00 -32.6828 -59.5110 339° North  Level FlightAware Approximate
Sun 21:31:00 -32.5703 -59.5615 339° North  Level FlightAware Approximate
Sun 21:32:00 -32.4577 -59.6118 339° North  Level FlightAware Approximate
Sun 21:33:00 -32.3451 -59.6620 339° North  Level FlightAware Approximate
Sun 21:34:00 -32.2325 -59.7121 339° North  Level FlightAware Approximate
Sun 21:35:00 -32.1199 -59.7620 339° North  Level FlightAware Approximate
Sun 21:36:00 -32.0072 -59.8119 339° North  Level FlightAware Approximate
Sun 21:37:00 -31.8945 -59.8616 339° North  Level FlightAware Approximate
Sun 21:38:00 -31.7818 -59.9112 339° North  Level FlightAware Approximate
Sun 21:39:00 -31.6691 -59.9606 340° North  Level FlightAware Approximate
Sun 21:40:00 -31.5564 -60.0100 340° North  Level FlightAware Approximate
Sun 21:41:00 -31.4436 -60.0592 340° North  Level FlightAware Approximate
Sun 21:42:00 -31.3309 -60.1083 340° North  Level FlightAware Approximate
Sun 21:43:00 -31.2181 -60.1573 340° North  Level FlightAware Approximate
Sun 21:44:00 -31.1053 -60.2062 340° North  Level FlightAware Approximate
Sun 21:45:00 -30.9925 -60.2550 340° North  Level FlightAware Approximate
Sun 21:46:00 -30.8796 -60.3036 340° North  Level FlightAware Approximate
Sun 21:47:00 -30.7668 -60.3521 340° North  Level FlightAware Approximate
Sun 21:48:00 -30.6539 -60.4006 340° North  Level FlightAware Approximate
Sun 21:49:00 -30.5410 -60.4488 340° North  Level FlightAware Approximate
Sun 21:50:00 -30.4281 -60.4970 340° North  Level FlightAware Approximate
Sun 21:51:00 -30.3152 -60.5451 340° North  Level FlightAware Approximate
Sun 21:52:00 -30.2022 -60.5931 340° North  Level FlightAware Approximate
Sun 21:53:00 -30.0848 -60.6428 340° North  Level FlightAware Approximate
Sun 21:54:00 -29.9674 -60.6924 340° North  Level FlightAware Approximate
Sun 21:55:00 -29.8500 -60.7419 340° North  Level FlightAware Approximate
Sun 21:56:00 -29.7325 -60.7913 340° North  Level FlightAware Approximate
Sun 21:57:00 -29.6151 -60.8406 340° North  Level FlightAware Approximate
Sun 21:58:00 -29.4976 -60.8897 340° North  Level FlightAware Approximate
Sun 21:59:00 -29.3801 -60.9388 340° North  Level FlightAware Approximate
Sun 22:00:00 -29.2626 -60.9877 340° North  Level FlightAware Approximate
Sun 22:01:00 -29.1450 -61.0365 340° North  Level FlightAware Approximate
Sun 22:02:00 -29.0275 -61.0852 340° North  Level FlightAware Approximate
Sun 22:03:00 -28.9099 -61.1338 340° North  Level FlightAware Approximate
Sun 22:04:00 -28.7923 -61.1823 340° North  Level FlightAware Approximate
Sun 22:05:00 -28.6747 -61.2307 340° North  Level FlightAware Approximate
Sun 22:06:00 -28.5571 -61.2789 340° North  Level FlightAware Approximate
Sun 22:07:00 -28.4395 -61.3271 340° North  Level FlightAware Approximate
Sun 22:08:00 -28.3218 -61.3751 340° North  Level FlightAware Approximate
Sun 22:09:00 -28.2041 -61.4230 340° North  Level FlightAware Approximate
Sun 22:10:00 -28.0864 -61.4709 340° North  Level FlightAware Approximate
Sun 22:11:00 -27.9687 -61.5186 340° North  Level FlightAware Approximate
Sun 22:12:00 -27.8510 -61.5662 340° North  Level FlightAware Approximate
Sun 22:13:00 -27.7333 -61.6138 340° North  Level FlightAware Approximate
Sun 22:14:00 -27.6155 -61.6612 340° North  Level FlightAware Approximate
Sun 22:15:00 -27.4977 -61.7085 340° North  Level FlightAware Approximate
Sun 22:16:00 -27.3799 -61.7557 340° North  Level FlightAware Approximate
Sun 22:17:00 -27.2621 -61.8028 340° North  Level FlightAware Approximate
Sun 22:18:00 -27.1443 -61.8499 340° North  Level FlightAware Approximate
Sun 22:19:00 -27.0265 -61.8968 340° North  Level FlightAware Approximate
Sun 22:20:00 -26.9086 -61.9436 340° North  Level FlightAware Approximate
Sun 22:21:00 -26.7908 -61.9903 341° North  Level FlightAware Approximate
Sun 22:22:00 -26.6729 -62.0370 341° North  Level FlightAware Approximate
Sun 22:23:00 -26.5550 -62.0835 341° North  Level FlightAware Approximate
Sun 22:24:00 -26.4371 -62.1299 341° North  Level FlightAware Approximate
Sun 22:25:00 -26.3192 -62.1763 341° North  Level FlightAware Approximate
Sun 22:26:00 -26.2012 -62.2225 341° North  Level FlightAware Approximate
Sun 22:27:00 -26.0833 -62.2687 341° North  Level FlightAware Approximate
Sun 22:28:00 -25.9653 -62.3147 341° North  Level FlightAware Approximate
Sun 22:29:00 -25.8473 -62.3607 341° North  Level FlightAware Approximate
Sun 22:30:00 -25.7293 -62.4066 341° North  Level FlightAware Approximate
Sun 22:31:00 -25.6113 -62.4523 341° North  Level FlightAware Approximate
Sun 22:32:00 -25.4932 -62.4980 341° North  Level FlightAware Approximate
Sun 22:33:00 -25.3752 -62.5436 341° North  Level FlightAware Approximate
Sun 22:34:00 -25.2572 -62.5891 341° North  Level FlightAware Approximate
Sun 22:35:00 -25.1391 -62.6346 341° North  Level FlightAware Approximate
Sun 22:36:00 -25.0210 -62.6799 341° North  Level FlightAware Approximate
Sun 22:37:00 -24.9029 -62.7252 341° North  Level FlightAware Approximate
Sun 22:38:00 -24.7848 -62.7703 341° North  Level FlightAware Approximate
Sun 22:39:00 -24.6667 -62.8154 341° North  Level FlightAware Approximate
Sun 22:40:00 -24.5485 -62.8604 341° North  Level FlightAware Approximate
Sun 22:41:00 -24.4304 -62.9053 341° North  Level FlightAware Approximate
Sun 22:42:00 -24.3122 -62.9501 341° North  Level FlightAware Approximate
Sun 22:43:00 -24.1940 -62.9949 341° North  Level FlightAware Approximate
Sun 22:44:00 -24.0758 -63.0395 341° North  Level FlightAware Approximate
Sun 22:45:00 -23.9576 -63.0841 341° North  Level FlightAware Approximate
Sun 22:46:00 -23.8394 -63.1286 341° North  Level FlightAware Approximate
Sun 22:47:00 -23.7212 -63.1730 341° North  Level FlightAware Approximate
Sun 22:48:00 -23.6029 -63.2173 341° North  Level FlightAware Approximate
Sun 22:49:00 -23.4847 -63.2616 341° North  Level FlightAware Approximate
Sun 22:50:00 -23.3664 -63.3057 341° North  Level FlightAware Approximate
Sun 22:51:00 -23.2481 -63.3498 341° North  Level FlightAware Approximate
Sun 22:52:00 -23.1298 -63.3938 341° North  Level FlightAware Approximate
Sun 22:53:00 -23.0115 -63.4378 341° North  Level FlightAware Approximate
Sun 22:54:00 -22.8932 -63.4817 341° North  Level FlightAware Approximate
Sun 22:55:00 -22.7749 -63.5254 341° North  Level FlightAware Approximate
Sun 22:56:00 -22.6565 -63.5691 341° North  Level FlightAware Approximate
Sun 22:57:00 -22.5382 -63.6128 341° North  Level FlightAware Approximate
Sun 22:58:00 -22.4198 -63.6563 341° North  Level FlightAware Approximate
Sun 22:59:00 -22.3015 -63.6998 341° North  Level FlightAware Approximate
Sun 23:00:00 -22.1831 -63.7432 341° North  Level FlightAware Approximate
Sun 23:01:00 -22.0647 -63.7866 341° North  Level FlightAware Approximate
Sun 23:02:00 -21.9463 -63.8298 341° North  Level FlightAware Approximate
Sun 23:03:00 -21.8280 -63.8730 341° North  Level FlightAware Approximate
Sun 23:04:00 -21.7098 -63.9160 341° North  Level FlightAware Approximate
Sun 23:05:00 -21.5916 -63.9590 341° North  Level FlightAware Approximate
Sun 23:06:00 -21.4733 -64.0019 341° North  Level FlightAware Approximate
Sun 23:07:00 -21.3551 -64.0447 341° North  Level FlightAware Approximate
Sun 23:08:00 -21.2368 -64.0875 341° North  Level FlightAware Approximate
Sun 23:09:00 -21.1185 -64.1302 341° North  Level FlightAware Approximate
Sun 23:10:00 -21.0002 -64.1729 341° North  Level FlightAware Approximate
Sun 23:11:00 -20.8819 -64.2154 341° North  Level FlightAware Approximate
Sun 23:12:00 -20.7636 -64.2579 341° North  Level FlightAware Approximate
Sun 23:13:00 -20.6452 -64.3003 341° North  Level FlightAware Approximate
Sun 23:14:00 -20.5269 -64.3427 341° North  Level FlightAware Approximate
Sun 23:15:00 -20.4085 -64.3850 341° North  Level FlightAware Approximate
Sun 23:16:00 -20.2902 -64.4273 341° North  Level FlightAware Approximate
Sun 23:17:00 -20.1718 -64.4694 342° North  Level FlightAware Approximate
Sun 23:18:00 -20.0534 -64.5115 342° North  Level FlightAware Approximate
Sun 23:19:00 -19.9350 -64.5536 342° North  Level FlightAware Approximate
Sun 23:20:00 -19.8166 -64.5956 342° North  Level FlightAware Approximate
Sun 23:21:00 -19.6982 -64.6375 342° North  Level FlightAware Approximate
Sun 23:22:00 -19.5798 -64.6793 342° North  Level FlightAware Approximate
Sun 23:23:00 -19.4614 -64.7211 342° North  Level FlightAware Approximate
Sun 23:24:00 -19.3429 -64.7629 342° North  Level FlightAware Approximate
Sun 23:25:00 -19.2245 -64.8045 342° North  Level FlightAware Approximate
Sun 23:26:00 -19.1060 -64.8462 342° North  Level FlightAware Approximate
Sun 23:27:00 -18.9876 -64.8877 342° North  Level FlightAware Approximate
Sun 23:28:00 -18.8691 -64.9292 342° North  Level FlightAware Approximate
Sun 23:29:00 -18.7506 -64.9706 342° North  Level FlightAware Approximate
Sun 23:30:00 -18.6321 -65.0120 342° North  Level FlightAware Approximate
Sun 23:31:00 -18.5136 -65.0533 342° North  Level FlightAware Approximate
Sun 23:32:00 -18.3951 -65.0946 342° North  Level FlightAware Approximate
Sun 23:33:00 -18.2766 -65.1358 342° North  Level FlightAware Approximate
Sun 23:34:00 -18.1581 -65.1770 342° North  Level FlightAware Approximate
Sun 23:35:00 -18.0395 -65.2180 342° North  Level FlightAware Approximate
Sun 23:36:00 -17.9210 -65.2591 342° North  Level FlightAware Approximate
Sun 23:37:00 -17.8024 -65.3001 342° North  Level FlightAware Approximate
Sun 23:38:00 -17.6838 -65.3410 342° North  Level FlightAware Approximate
Sun 23:39:00 -17.5653 -65.3819 342° North  Level FlightAware Approximate
Sun 23:40:00 -17.4467 -65.4227 342° North  Level FlightAware Approximate
Sun 23:41:00 -17.3281 -65.4635 342° North  Level FlightAware Approximate
Sun 23:42:00 -17.2095 -65.5042 342° North  Level FlightAware Approximate
Sun 23:43:00 -17.0909 -65.5449 342° North  Level FlightAware Approximate
Sun 23:44:00 -16.9723 -65.5855 342° North  Level FlightAware Approximate
Sun 23:45:00 -16.8537 -65.6260 342° North  Level FlightAware Approximate
Sun 23:46:00 -16.7350 -65.6665 342° North  Level FlightAware Approximate
Sun 23:47:00 -16.6164 -65.7070 342° North  Level FlightAware Approximate
Sun 23:48:00 -16.4977 -65.7474 342° North  Level FlightAware Approximate
Sun 23:49:00 -16.3791 -65.7878 342° North  Level FlightAware Approximate
Sun 23:50:00 -16.2604 -65.8281 342° North  Level FlightAware Approximate
Sun 23:51:00 -16.1418 -65.8683 342° North  Level FlightAware Approximate
Sun 23:52:00 -16.0231 -65.9085 342° North  Level FlightAware Approximate
Sun 23:53:00 -15.9044 -65.9487 342° North  Level FlightAware Approximate
Sun 23:54:00 -15.7857 -65.9888 342° North  Level FlightAware Approximate
Sun 23:55:00 -15.6670 -66.0289 342° North  Level FlightAware Approximate
Sun 23:56:00 -15.5483 -66.0689 342° North  Level FlightAware Approximate
Sun 23:57:00 -15.4296 -66.1089 342° North  Level FlightAware Approximate
Sun 23:58:00 -15.3109 -66.1488 342° North  Level FlightAware Approximate
Sun 23:59:00 -15.1921 -66.1887 342° North  Level FlightAware Approximate
Mon 00:00:00 -15.0734 -66.2286 342° North  Level FlightAware Approximate
Mon 00:01:00 -14.9547 -66.2684 342° North  Level FlightAware Approximate
Mon 00:02:00 -14.8359 -66.3081 342° North  Level FlightAware Approximate
Mon 00:03:00 -14.7172 -66.3478 342° North  Level FlightAware Approximate
Mon 00:04:00 -14.5984 -66.3875 342° North  Level FlightAware Approximate
Mon 00:05:00 -14.4796 -66.4271 342° North  Level FlightAware Approximate
Mon 00:06:00 -14.3609 -66.4667 342° North  Level FlightAware Approximate
Mon 00:07:00 -14.2421 -66.5063 342° North  Level FlightAware Approximate
Mon 00:08:00 -14.1233 -66.5458 342° North  Level FlightAware Approximate
Mon 00:09:00 -14.0045 -66.5852 342° North  Level FlightAware Approximate
Mon 00:10:00 -13.8857 -66.6246 342° North  Level FlightAware Approximate
Mon 00:11:00 -13.7669 -66.6640 342° North  Level FlightAware Approximate
Mon 00:12:00 -13.6481 -66.7034 342° North  Level FlightAware Approximate
Mon 00:13:00 -13.5293 -66.7427 342° North  Level FlightAware Approximate
Mon 00:14:00 -13.4104 -66.7819 342° North  Level FlightAware Approximate
Mon 00:15:00 -13.2916 -66.8211 342° North  Level FlightAware Approximate
Mon 00:16:00 -13.1728 -66.8603 342° North  Level FlightAware Approximate
Mon 00:17:00 -13.0539 -66.8995 342° North  Level FlightAware Approximate
Mon 00:18:00 -12.9351 -66.9386 342° North  Level FlightAware Approximate
Mon 00:19:00 -12.8162 -66.9776 342° North  Level FlightAware Approximate
Mon 00:20:00 -12.6974 -67.0167 342° North  Level FlightAware Approximate
Mon 00:21:00 -12.5785 -67.0557 342° North  Level FlightAware Approximate
Mon 00:22:00 -12.4596 -67.0946 342° North  Level FlightAware Approximate
Mon 00:23:00 -12.3407 -67.1336 342° North  Level FlightAware Approximate
Mon 00:24:00 -12.2219 -67.1724 342° North  Level FlightAware Approximate
Mon 00:25:00 -12.1030 -67.2113 342° North  Level FlightAware Approximate
Mon 00:26:00 -11.9841 -67.2501 342° North  Level FlightAware Approximate
Mon 00:27:00 -11.8652 -67.2889 342° North  Level FlightAware Approximate
Mon 00:28:00 -11.7463 -67.3276 342° North  Level FlightAware Approximate
Mon 00:29:00 -11.6274 -67.3664 342° North  Level FlightAware Approximate
Mon 00:30:00 -11.5085 -67.4050 342° North  Level FlightAware Approximate
Mon 00:31:00 -11.3896 -67.4437 342° North  Level FlightAware Approximate
Mon 00:32:00 -11.2706 -67.4823 342° North  Level FlightAware Approximate
Mon 00:33:00 -11.1517 -67.5209 342° North  Level FlightAware Approximate
Mon 00:34:00 -11.0328 -67.5595 342° North  Level FlightAware Approximate
Mon 00:35:00 -10.9138 -67.5980 342° North  Level FlightAware Approximate
Mon 00:36:00 -10.7949 -67.6365 342° North  Level FlightAware Approximate
Mon 00:37:00 -10.6759 -67.6749 342° North  Level FlightAware Approximate
Mon 00:38:00 -10.5570 -67.7134 342° North  Level FlightAware Approximate
Mon 00:39:00 -10.4380 -67.7518 342° North  Level FlightAware Approximate
Mon 00:40:00 -10.3191 -67.7901 342° North  Level FlightAware Approximate
Mon 00:41:00 -10.2001 -67.8285 342° North  Level FlightAware Approximate
Mon 00:42:00 -10.0811 -67.8668 342° North  Level FlightAware Approximate
Mon 00:43:00 -9.9621 -67.9051 342° North  Level FlightAware Approximate
Mon 00:44:00 -9.8432 -67.9434 342° North  Level FlightAware Approximate
Mon 00:45:00 -9.7242 -67.9816 342° North  Level FlightAware Approximate
Mon 00:46:00 -9.6052 -68.0198 342° North  Level FlightAware Approximate
Mon 00:47:00 -9.4862 -68.0580 342° North  Level FlightAware Approximate
Mon 00:48:00 -9.3672 -68.0961 342° North  Level FlightAware Approximate
Mon 00:49:00 -9.2482 -68.1342 342° North  Level FlightAware Approximate
Mon 00:50:00 -9.1292 -68.1723 342° North  Level FlightAware Approximate
Mon 00:51:00 -9.0102 -68.2104 342° North  Level FlightAware Approximate
Mon 00:52:00 -8.8912 -68.2485 342° North  Level FlightAware Approximate
Mon 00:53:00 -8.7721 -68.2865 342° North  Level FlightAware Approximate
Mon 00:54:00 -8.6531 -68.3245 342° North  Level FlightAware Approximate
Mon 00:55:00 -8.5341 -68.3625 342° North  Level FlightAware Approximate
Mon 00:56:00 -8.4151 -68.4004 342° North  Level FlightAware Approximate
Mon 00:57:00 -8.2960 -68.4384 342° North  Level FlightAware Approximate
Mon 00:58:00 -8.1770 -68.4763 343° North  Level FlightAware Approximate
Mon 00:59:00 -8.0580 -68.5142 343° North  Level FlightAware Approximate
Mon 01:00:00 -7.9389 -68.5520 343° North  Level FlightAware Approximate
Mon 01:01:00 -7.8199 -68.5899 343° North  Level FlightAware Approximate
Mon 01:02:00 -7.7008 -68.6277 343° North  Level FlightAware Approximate
Mon 01:03:00 -7.5818 -68.6655 343° North  Level FlightAware Approximate
Mon 01:04:00 -7.4627 -68.7033 343° North  Level FlightAware Approximate
Mon 01:05:00 -7.3436 -68.7410 343° North  Level FlightAware Approximate
Mon 01:06:00 -7.2246 -68.7788 343° North  Level FlightAware Approximate
Mon 01:07:00 -7.1055 -68.8165 343° North  Level FlightAware Approximate
Mon 01:08:00 -6.9864 -68.8542 343° North  Level FlightAware Approximate
Mon 01:09:00 -6.8674 -68.8919 343° North  Level FlightAware Approximate
Mon 01:10:00 -6.7483 -68.9295 343° North  Level FlightAware Approximate
Mon 01:11:00 -6.6292 -68.9672 343° North  Level FlightAware Approximate
Mon 01:12:00 -6.5101 -69.0048 343° North  Level FlightAware Approximate
Mon 01:13:00 -6.3910 -69.0424 343° North  Level FlightAware Approximate
Mon 01:14:00 -6.2720 -69.0800 343° North  Level FlightAware Approximate
Mon 01:15:00 -6.1529 -69.1175 343° North  Level FlightAware Approximate
Mon 01:16:00 -6.0338 -69.1551 343° North  Level FlightAware Approximate
Mon 01:17:00 -5.9147 -69.1926 343° North  Level FlightAware Approximate
Mon 01:18:00 -5.7956 -69.2301 343° North  Level FlightAware Approximate
Mon 01:19:00 -5.6765 -69.2676 343° North  Level FlightAware Approximate
Mon 01:20:00 -5.5574 -69.3051 343° North  Level FlightAware Approximate
Mon 01:21:00 -5.4383 -69.3426 343° North  Level FlightAware Approximate
Mon 01:22:00 -5.3192 -69.3801 343° North  Level FlightAware Approximate
Mon 01:23:00 -5.2001 -69.4175 343° North  Level FlightAware Approximate
Mon 01:24:00 -5.0810 -69.4549 343° North  Level FlightAware Approximate
Mon 01:25:00 -4.9619 -69.4924 343° North  Level FlightAware Approximate
Mon 01:26:00 -4.8427 -69.5298 343° North  Level FlightAware Approximate
Mon 01:27:00 -4.7240 -69.5670 343° North  Level FlightAware Approximate
Mon 01:28:00 -4.6053 -69.6043 343° North  Level FlightAware Approximate
Mon 01:29:00 -4.4866 -69.6415 343° North  Level FlightAware Approximate
Mon 01:30:00 -4.3679 -69.6787 343° North  Level FlightAware Approximate
Mon 01:31:00 -4.2491 -69.7159 343° North  Level FlightAware Approximate
Mon 01:32:00 -4.1304 -69.7531 343° North  Level FlightAware Approximate
Mon 01:33:00 -4.0117 -69.7903 343° North  Level FlightAware Approximate
Mon 01:34:00 -3.8930 -69.8275 343° North  Level FlightAware Approximate
Mon 01:35:00 -3.7742 -69.8647 343° North  Level FlightAware Approximate
Mon 01:36:00 -3.6555 -69.9018 343° North  Level FlightAware Approximate
Mon 01:37:00 -3.5368 -69.9390 343° North  Level FlightAware Approximate
Mon 01:38:00 -3.4181 -69.9761 343° North  Level FlightAware Approximate
Mon 01:39:00 -3.2993 -70.0133 343° North  Level FlightAware Approximate
Mon 01:40:00 -3.1806 -70.0504 343° North  Level FlightAware Approximate
Mon 01:41:00 -3.0618 -70.0875 343° North  Level FlightAware Approximate
Mon 01:42:00 -2.9431 -70.1246 343° North  Level FlightAware Approximate
Mon 01:43:00 -2.8244 -70.1617 343° North  Level FlightAware Approximate
Mon 01:44:00 -2.7056 -70.1988 343° North  Level FlightAware Approximate
Mon 01:45:00 -2.5869 -70.2359 343° North  Level FlightAware Approximate
Mon 01:46:00 -2.4681 -70.2729 343° North  Level FlightAware Approximate
Mon 01:47:00 -2.3494 -70.3100 343° North  Level FlightAware Approximate
Mon 01:48:00 -2.2307 -70.3471 343° North  Level FlightAware Approximate
Mon 01:49:00 -2.1119 -70.3841 343° North  Level FlightAware Approximate
Mon 01:50:00 -1.9932 -70.4212 343° North  Level FlightAware Approximate
Mon 01:51:00 -1.8744 -70.4582 343° North  Level FlightAware Approximate
Mon 01:52:00 -1.7557 -70.4952 343° North  Level FlightAware Approximate
Mon 01:53:00 -1.6369 -70.5323 343° North  Level FlightAware Approximate
Mon 01:54:00 -1.5182 -70.5693 343° North  Level FlightAware Approximate
Mon 01:55:00 -1.3994 -70.6064 343° North  Level FlightAware Approximate
Mon 01:56:00 -1.2807 -70.6434 343° North  Level FlightAware Approximate
Mon 01:57:00 -1.1619 -70.6804 343° North  Level FlightAware Approximate
Mon 01:58:00 -1.0432 -70.7174 343° North  Level FlightAware Approximate
Mon 01:59:00 -0.9244 -70.7544 343° North  Level FlightAware Approximate
Mon 02:00:00 -0.8057 -70.7914 343° North  Level FlightAware Approximate
Mon 02:01:00 -0.6869 -70.8284 343° North  Level FlightAware Approximate
Mon 02:02:00 -0.5682 -70.8654 343° North  Level FlightAware Approximate
Mon 02:03:00 -0.4494 -70.9025 343° North  Level FlightAware Approximate
Mon 02:04:00 -0.3307 -70.9395 343° North  Level FlightAware Approximate
Mon 02:05:00 -0.2119 -70.9765 343° North  Level FlightAware Approximate
Mon 02:06:00 -0.0932 -71.0135 343° North  Level FlightAware Approximate
Mon 02:07:00 0.0256 -71.0505 343° North  Level FlightAware Approximate
Mon 02:08:00 0.1443 -71.0875 343° North  Level FlightAware Approximate
Mon 02:09:00 0.2631 -71.1245 343° North  Level FlightAware Approximate
Mon 02:10:00 0.3818 -71.1615 343° North  Level FlightAware Approximate
Mon 02:11:00 0.5006 -71.1985 343° North  Level FlightAware Approximate
Mon 02:12:00 0.6193 -71.2355 343° North  Level FlightAware Approximate
Mon 02:13:00 0.7381 -71.2725 343° North  Level FlightAware Approximate
Mon 02:14:00 0.8568 -71.3095 343° North  Level FlightAware Approximate
Mon 02:15:00 0.9756 -71.3464 343° North  Level FlightAware Approximate
Mon 02:16:00 1.0945 -71.3832 343° North  Level FlightAware Approximate
Mon 02:17:00 1.2133 -71.4200 343° North  Level FlightAware Approximate
Mon 02:18:00 1.3321 -71.4568 343° North  Level FlightAware Approximate
Mon 02:19:00 1.4510 -71.4935 343° North  Level FlightAware Approximate
Mon 02:20:00 1.5698 -71.5303 343° North  Level FlightAware Approximate
Mon 02:21:00 1.6886 -71.5671 343° North  Level FlightAware Approximate
Mon 02:22:00 1.8074 -71.6039 343° North  Level FlightAware Approximate
Mon 02:23:00 1.9262 -71.6407 343° North  Level FlightAware Approximate
Mon 02:24:00 2.0451 -71.6775 343° North  Level FlightAware Approximate
Mon 02:25:00 2.1639 -71.7143 343° North  Level FlightAware Approximate
Mon 02:26:00 2.2827 -71.7511 343° North  Level FlightAware Approximate
Mon 02:27:00 2.4015 -71.7880 343° North  Level FlightAware Approximate
Mon 02:28:00 2.5203 -71.8248 343° North  Level FlightAware Approximate
Mon 02:29:00 2.6392 -71.8616 343° North  Level FlightAware Approximate
Mon 02:30:00 2.7580 -71.8985 343° North  Level FlightAware Approximate
Mon 02:31:00 2.8766 -71.9359 342° North  Level FlightAware Approximate
Mon 02:32:00 2.9950 -71.9740 342° North  Level FlightAware Approximate
Mon 02:33:00 3.1135 -72.0120 342° North  Level FlightAware Approximate
Mon 02:34:00 3.2319 -72.0501 342° North  Level FlightAware Approximate
Mon 02:35:00 3.3504 -72.0881 342° North  Level FlightAware Approximate
Mon 02:36:00 3.4688 -72.1262 342° North  Level FlightAware Approximate
Mon 02:37:00 3.5872 -72.1643 342° North  Level FlightAware Approximate
Mon 02:38:00 3.7057 -72.2024 342° North  Level FlightAware Approximate
Mon 02:39:00 3.8245 -72.2393 343° North  Level FlightAware Approximate
Mon 02:40:00 3.9435 -72.2754 343° North  Level FlightAware Approximate
Mon 02:41:00 4.0626 -72.3115 343° North  Level FlightAware Approximate
Mon 02:42:00 4.1816 -72.3476 343° North  Level FlightAware Approximate
Mon 02:43:00 4.3007 -72.3838 343° North  Level FlightAware Approximate
Mon 02:44:00 4.4197 -72.4199 343° North  Level FlightAware Approximate
Mon 02:45:00 4.5388 -72.4561 343° North  Level FlightAware Approximate
Mon 02:46:00 4.6578 -72.4922 343° North  Level FlightAware Approximate
Mon 02:47:00 4.7764 -72.5299 342° North  Level FlightAware Approximate
Mon 02:48:00 4.8949 -72.5679 342° North  Level FlightAware Approximate
Mon 02:49:00 5.0134 -72.6060 342° North  Level FlightAware Approximate
Mon 02:50:00 5.1318 -72.6440 342° North  Level FlightAware Approximate
Mon 02:51:00 5.2503 -72.6821 342° North  Level FlightAware Approximate
Mon 02:52:00 5.3687 -72.7202 342° North  Level FlightAware Approximate
Mon 02:53:00 5.4872 -72.7583 342° North  Level FlightAware Approximate
Mon 02:54:00 5.6056 -72.7964 342° North  Level FlightAware Approximate
Mon 02:55:00 5.7242 -72.8342 342° North  Level FlightAware Approximate
Mon 02:56:00 5.8428 -72.8719 342° North  Level FlightAware Approximate
Mon 02:57:00 5.9614 -72.9096 342° North  Level FlightAware Approximate
Mon 02:58:00 6.0800 -72.9473 342° North  Level FlightAware Approximate
Mon 02:59:00 6.1986 -72.9850 342° North  Level FlightAware Approximate
Mon 03:00:00 6.3172 -73.0228 342° North  Level FlightAware Approximate
Mon 03:01:00 6.4358 -73.0606 342° North  Level FlightAware Approximate
Mon 03:02:00 6.5543 -73.0984 342° North  Level FlightAware Approximate
Mon 03:03:00 6.6729 -73.1362 342° North  Level FlightAware Approximate
Mon 03:04:00 6.7915 -73.1740 342° North  Level FlightAware Approximate
Mon 03:05:00 6.9101 -73.2119 342° North  Level FlightAware Approximate
Mon 03:06:00 7.0286 -73.2497 342° North  Level FlightAware Approximate
Mon 03:07:00 7.1472 -73.2876 342° North  Level FlightAware Approximate
Mon 03:08:00 7.2658 -73.3255 342° North  Level FlightAware Approximate
Mon 03:09:00 7.3843 -73.3635 342° North  Level FlightAware Approximate
Mon 03:10:00 7.5029 -73.4014 342° North  Level FlightAware Approximate
Mon 03:11:00 7.6214 -73.4394 342° North  Level FlightAware Approximate
Mon 03:12:00 7.7400 -73.4774 342° North  Level FlightAware Approximate
Mon 03:13:00 7.8586 -73.5154 342° North  Level FlightAware Approximate
Mon 03:14:00 7.9771 -73.5534 342° North  Level FlightAware Approximate
Mon 03:15:00 8.0956 -73.5915 342° North  Level FlightAware Approximate
Mon 03:16:00 8.2142 -73.6295 342° North  Level FlightAware Approximate
Mon 03:17:00 8.3327 -73.6676 342° North  Level FlightAware Approximate
Mon 03:18:00 8.4513 -73.7057 343° North  Level FlightAware Approximate
Mon 03:19:00 8.5700 -73.7433 343° North  Level FlightAware Approximate
Mon 03:20:00 8.6886 -73.7809 343° North  Level FlightAware Approximate
Mon 03:21:00 8.8073 -73.8186 343° North  Level FlightAware Approximate
Mon 03:22:00 8.9260 -73.8563 343° North  Level FlightAware Approximate
Mon 03:23:00 9.0445 -73.8940 343° North  Level FlightAware Approximate
Mon 03:24:00 9.1629 -73.9316 343° North  Level FlightAware Approximate
Mon 03:25:00 9.2814 -73.9693 343° North  Level FlightAware Approximate
Mon 03:26:00 9.3999 -74.0071 343° North  Level FlightAware Approximate
Mon 03:27:00 9.5183 -74.0448 343° North  Level FlightAware Approximate
Mon 03:28:00 9.6368 -74.0826 343° North  Level FlightAware Approximate
Mon 03:29:00 9.7552 -74.1204 343° North  Level FlightAware Approximate
Mon 03:30:00 9.8737 -74.1582 343° North  Level FlightAware Approximate
Mon 03:31:00 9.9921 -74.1961 343° North  Level FlightAware Approximate
Mon 03:32:00 10.1106 -74.2340 343° North  Level FlightAware Approximate
Mon 03:33:00 10.2290 -74.2719 343° North  Level FlightAware Approximate
Mon 03:34:00 10.3474 -74.3099 343° North  Level FlightAware Approximate
Mon 03:35:00 10.4658 -74.3478 343° North  Level FlightAware Approximate
Mon 03:36:00 10.5843 -74.3858 342° North  Level FlightAware Approximate
Mon 03:37:00 10.7027 -74.4238 342° North  Level FlightAware Approximate
Mon 03:38:00 10.8211 -74.4619 342° North  Level FlightAware Approximate
Mon 03:39:00 10.9395 -74.5000 342° North  Level FlightAware Approximate
Mon 03:40:00 11.0579 -74.5381 342° North  Level FlightAware Approximate
Mon 03:41:00 11.1763 -74.5762 342° North  Level FlightAware Approximate
Mon 03:42:00 11.2947 -74.6145 342° North  Level FlightAware Approximate
Mon 03:43:00 11.4130 -74.6528 342° North  Level FlightAware Approximate
Mon 03:44:00 11.5314 -74.6912 342° North  Level FlightAware Approximate
Mon 03:45:00 11.6497 -74.7297 342° North  Level FlightAware Approximate
Mon 03:46:00 11.7680 -74.7681 342° North  Level FlightAware Approximate
Mon 03:47:00 11.8863 -74.8066 342° North  Level FlightAware Approximate
Mon 03:48:00 12.0047 -74.8451 342° North  Level FlightAware Approximate
Mon 03:49:00 12.1230 -74.8837 342° North  Level FlightAware Approximate
Mon 03:50:00 12.2413 -74.9223 342° North  Level FlightAware Approximate
Mon 03:51:00 12.3596 -74.9609 342° North  Level FlightAware Approximate
Mon 03:52:00 12.4777 -74.9995 342° North  Level FlightAware Approximate
Mon 03:53:00 12.5958 -75.0381 342° North  Level FlightAware Approximate
Mon 03:54:00 12.7139 -75.0768 342° North  Level FlightAware Approximate
Mon 03:55:00 12.8319 -75.1155 342° North  Level FlightAware Approximate
Mon 03:56:00 12.9500 -75.1542 342° North  Level FlightAware Approximate
Mon 03:57:00 13.0681 -75.1930 342° North  Level FlightAware Approximate
Mon 03:58:00 13.1861 -75.2318 342° North  Level FlightAware Approximate
Mon 03:59:00 13.3042 -75.2707 342° North  Level FlightAware Approximate
Mon 04:00:00 13.4222 -75.3096 342° North  Level FlightAware Approximate
Mon 04:01:00 13.5403 -75.3485 342° North  Level FlightAware Approximate
Mon 04:02:00 13.6583 -75.3875 342° North  Level FlightAware Approximate
Mon 04:03:00 13.7764 -75.4265 342° North  Level FlightAware Approximate
Mon 04:04:00 13.8944 -75.4655 342° North  Level FlightAware Approximate
Mon 04:05:00 14.0124 -75.5046 342° North  Level FlightAware Approximate
Mon 04:06:00 14.1304 -75.5437 342° North  Level FlightAware Approximate
Mon 04:07:00 14.2484 -75.5829 342° North  Level FlightAware Approximate
Mon 04:08:00 14.3664 -75.6221 342° North  Level FlightAware Approximate
Mon 04:09:00 14.4844 -75.6613 342° North  Level FlightAware Approximate
Mon 04:10:00 14.6024 -75.7006 342° North  Level FlightAware Approximate
Mon 04:11:00 14.7204 -75.7400 342° North  Level FlightAware Approximate
Mon 04:12:00 14.8384 -75.7793 342° North  Level FlightAware Approximate
Mon 04:13:00 14.9563 -75.8187 342° North  Level FlightAware Approximate
Mon 04:14:00 15.0743 -75.8582 342° North  Level FlightAware Approximate
Mon 04:15:00 15.1922 -75.8977 342° North  Level FlightAware Approximate
Mon 04:16:00 15.3102 -75.9372 342° North  Level FlightAware Approximate
Mon 04:17:00 15.4281 -75.9768 342° North  Level FlightAware Approximate
Mon 04:18:00 15.5461 -76.0165 342° North  Level FlightAware Approximate
Mon 04:19:00 15.6640 -76.0562 342° North  Level FlightAware Approximate
Mon 04:20:00 15.7819 -76.0959 342° North  Level FlightAware Approximate
Mon 04:21:00 15.8998 -76.1357 342° North  Level FlightAware Approximate
Mon 04:22:00 16.0177 -76.1755 342° North  Level FlightAware Approximate
Mon 04:23:00 16.1356 -76.2153 342° North  Level FlightAware Approximate
Mon 04:24:00 16.2535 -76.2553 342° North  Level FlightAware Approximate
Mon 04:25:00 16.3714 -76.2952 342° North  Level FlightAware Approximate
Mon 04:26:00 16.4893 -76.3353 342° North  Level FlightAware Approximate
Mon 04:27:00 16.6071 -76.3753 342° North  Level FlightAware Approximate
Mon 04:28:00 16.7250 -76.4154 342° North  Level FlightAware Approximate
Mon 04:29:00 16.8428 -76.4556 342° North  Level FlightAware Approximate
Mon 04:30:00 16.9607 -76.4958 342° North  Level FlightAware Approximate
Mon 04:31:00 17.0785 -76.5361 342° North  Level FlightAware Approximate
Mon 04:32:00 17.1963 -76.5764 342° North  Level FlightAware Approximate
Mon 04:33:00 17.3142 -76.6166 342° North  Level FlightAware Approximate
Mon 04:34:00 17.4320 -76.6569 342° North  Level FlightAware Approximate
Mon 04:35:00 17.5499 -76.6973 342° North  Level FlightAware Approximate
Mon 04:36:00 17.6677 -76.7377 342° North  Level FlightAware Approximate
Mon 04:37:00 17.7855 -76.7781 342° North  Level FlightAware Approximate
Mon 04:38:00 17.9034 -76.8186 342° North  Level FlightAware Approximate
Mon 04:39:00 18.0212 -76.8592 342° North  Level FlightAware Approximate
Mon 04:40:00 18.1390 -76.8998 342° North  Level FlightAware Approximate
Mon 04:41:00 18.2568 -76.9405 342° North  Level FlightAware Approximate
Mon 04:42:00 18.3745 -76.9812 342° North  Level FlightAware Approximate
Mon 04:43:00 18.4923 -77.0220 342° North  Level FlightAware Approximate
Mon 04:44:00 18.6101 -77.0628 342° North  Level FlightAware Approximate
Mon 04:45:00 18.7278 -77.1037 342° North  Level FlightAware Approximate
Mon 04:46:00 18.8456 -77.1447 342° North  Level FlightAware Approximate
Mon 04:47:00 18.9633 -77.1857 342° North  Level FlightAware Approximate
Mon 04:48:00 19.0810 -77.2268 342° North  Level FlightAware Approximate
Mon 04:49:00 19.1988 -77.2679 342° North  Level FlightAware Approximate
Mon 04:50:00 19.3165 -77.3091 342° North  Level FlightAware Approximate
Mon 04:51:00 19.4342 -77.3503 341° North  Level FlightAware Approximate
Mon 04:52:00 19.5515 -77.3928 341° North  Level FlightAware Approximate
Mon 04:53:00 19.6688 -77.4354 341° North  Level FlightAware Approximate
Mon 04:54:00 19.7860 -77.4781 341° North  Level FlightAware Approximate
Mon 04:55:00 19.9033 -77.5208 341° North  Level FlightAware Approximate
Mon 04:56:00 20.0207 -77.5632 342° North  Level FlightAware Approximate
Mon 04:57:00 20.1383 -77.6050 342° North  Level FlightAware Approximate
Mon 04:58:00 20.2559 -77.6468 342° North  Level FlightAware Approximate
Mon 04:59:00 20.3734 -77.6887 342° North  Level FlightAware Approximate
Mon 05:00:00 20.4910 -77.7307 342° North  Level FlightAware Approximate
Mon 05:01:00 20.6088 -77.7728 342° North  Level FlightAware Approximate
Mon 05:02:00 20.7265 -77.8149 341° North  Level FlightAware Approximate
Mon 05:03:00 20.8442 -77.8571 341° North  Level FlightAware Approximate
Mon 05:04:00 20.9620 -77.8994 341° North  Level FlightAware Approximate
Mon 05:05:00 21.0797 -77.9418 341° North  Level FlightAware Approximate
Mon 05:06:00 21.1974 -77.9842 341° North  Level FlightAware Approximate
Mon 05:07:00 21.3151 -78.0267 341° North  Level FlightAware Approximate
Mon 05:08:00 21.4327 -78.0692 341° North  Level FlightAware Approximate
Mon 05:09:00 21.5504 -78.1119 341° North  Level FlightAware Approximate
Mon 05:10:00 21.6681 -78.1545 341° North  Level FlightAware Approximate
Mon 05:11:00 21.7857 -78.1973 341° North  Level FlightAware Approximate
Mon 05:12:00 21.9034 -78.2401 341° North  Level FlightAware Approximate
Mon 05:13:00 22.0210 -78.2830 341° North  Level FlightAware Approximate
Mon 05:14:00 22.1386 -78.3260 341° North  Level FlightAware Approximate
Mon 05:15:00 22.2562 -78.3691 341° North  Level FlightAware Approximate
Mon 05:16:00 22.3738 -78.4122 341° North  Level FlightAware Approximate
Mon 05:17:00 22.4914 -78.4554 341° North  Level FlightAware Approximate
Mon 05:18:00 22.6089 -78.4986 341° North  Level FlightAware Approximate
Mon 05:19:00 22.7265 -78.5420 341° North  Level FlightAware Approximate
Mon 05:20:00 22.8441 -78.5854 341° North  Level FlightAware Approximate
Mon 05:21:00 22.9616 -78.6289 341° North  Level FlightAware Approximate
Mon 05:22:00 23.0791 -78.6725 341° North  Level FlightAware Approximate
Mon 05:23:00 23.1966 -78.7161 341° North  Level FlightAware Approximate
Mon 05:24:00 23.3141 -78.7598 341° North  Level FlightAware Approximate
Mon 05:25:00 23.4316 -78.8036 341° North  Level FlightAware Approximate
Mon 05:26:00 23.5491 -78.8475 341° North  Level FlightAware Approximate
Mon 05:27:00 23.6665 -78.8914 341° North  Level FlightAware Approximate
Mon 05:28:00 23.7840 -78.9355 341° North  Level FlightAware Approximate
Mon 05:29:00 23.9014 -78.9796 341° North  Level FlightAware Approximate
Mon 05:30:00 24.0182 -79.0257 335° Northwest  Level FlightAware Approximate
Mon 05:31:00 24.1352 -79.0710 341° North  Level FlightAware Approximate
Mon 05:31:47 23.2675 -77.9444 341° North 462 532 34,000  Level Miami Center
Mon 05:32:00 24.2528 -79.1146 341° North  Level FlightAware Approximate
Mon 05:32:46 23.3758 -78.0156 329° Northwest 462 532 34,100  Level Miami Center
Mon 05:33:00 24.3704 -79.1583 341° North  Level FlightAware Approximate
Mon 05:33:46 23.4817 -78.0958 325° Northwest 455 524 34,000  Level Miami Center
Mon 05:34:00 24.4880 -79.2020 341° North  Level FlightAware Approximate
Mon 05:34:46 23.5856 -78.1647 329° Northwest 450 518 34,000  Level Miami Center
Mon 05:35:00 24.6056 -79.2459 341° North  Level FlightAware Approximate
Mon 05:35:47 23.6936 -78.2453 326° Northwest 464 534 34,000  Level Miami Center
Mon 05:36:00 24.7232 -79.2898 341° North  Level FlightAware Approximate
Mon 05:36:48 23.7994 -78.3192 327° Northwest 457 526 34,000  Level Miami Center
Mon 05:37:00 24.8412 -79.3340 341° North  Level FlightAware Approximate
Mon 05:37:47 23.9053 -78.3953 327° Northwest 462 532 34,000  Level Miami Center
Mon 05:38:46 24.0111 -78.4672 328° Northwest 462 532 34,000  Level Miami Center
Mon 05:39:47 24.1294 -78.5233 337° Northwest 452 520 34,000  Level Miami Center
Mon 05:40:46 24.2481 -78.5794 337° Northwest 452 520 34,000  Level Miami Center
Mon 05:41:47 24.3664 -78.6383 336° Northwest 457 526 34,000  Level Miami Center
Mon 05:42:46 24.4847 -78.6947 337° Northwest 457 526 34,000  Level Miami Center
Mon 05:43:46 24.6011 -78.7514 336° Northwest 457 526 34,000  Level Miami Center
Mon 05:44:49 24.7175 -78.8081 336° Northwest 457 526 34,000  Level Miami Center
Mon 05:45:47 24.8358 -78.8647 337° Northwest 452 520 34,000  Level Miami Center
Mon 05:46:49 24.9500 -78.9194 337° Northwest 452 520 34,000  Level Miami Center
Mon 05:47:46 25.0558 -78.9669 338° Northwest 458 527 34,000  Level Miami Center
Mon 05:48:46 25.1700 -79.0242 336° Northwest 453 521 34,000 298 Level Miami Center
Mon 05:49:47 25.3069 -79.0864 338° Northwest 453 521 34,600 1,000 Climbing Miami Center
Mon 05:50:46 25.4211 -79.1436 336° Northwest 463 533 36,000 700 Climbing Miami Center
Mon 05:51:47 25.5372 -79.2011 336° Northwest 458 527 36,000  Level Miami Center
Mon 05:52:47 25.6533 -79.2586 336° Northwest 450 518 36,000  Level Miami Center
Mon 05:53:47 25.7547 -79.3092 336° Northwest 450 518 36,000  Level Miami Center
Mon 05:54:47 25.8833 -79.3694 337° Northwest 450 518 36,000 49 Level Miami Center
Mon 05:55:49 25.9889 -79.4225 336° Northwest 458 527 36,100  Climbing Miami Center
Mon 05:56:46 26.1214 -79.4878 336° Northwest 458 527 36,000 -51 Descending Miami Center
Mon 05:57:46 26.2394 -79.5458 336° Northwest 458 527 36,000 500 Level Miami Center
Mon 05:58:46 26.3553 -79.6042 336° Northwest 453 521 37,000 496 Climbing Miami Center
Mon 05:59:47 26.4589 -79.6578 335° Northwest 453 521 37,000 49 Level Miami Center
Mon 06:00:48 26.5850 -79.7186 337° Northwest 453 521 37,100  Climbing Miami Center
Mon 06:01:47 26.6906 -79.7725 335° Northwest 453 521 37,000 -50 Descending Miami Center
Mon 06:02:47 26.8022 -79.8286 336° Northwest 453 521 37,000  Level Miami Center
Mon 06:03:47 26.9158 -79.8875 335° Northwest 453 521 37,000  Level Miami Center
Mon 06:04:48 27.0397 -79.9492 336° Northwest 453 521 37,000  Level Miami Center
Mon 06:05:46 27.1431 -80.0056 334° Northwest 453 521 37,000  Level Miami Center
Mon 06:06:46 27.2586 -80.0625 336° Northwest 453 521 37,000  Level Miami Center
Mon 06:07:46 27.3764 -80.1217 336° Northwest 453 521 37,000  Level Miami Center
Mon 06:08:46 27.4919 -80.1789 336° Northwest 453 521 37,000  Level Miami Center
Mon 06:09:46 27.6075 -80.2386 335° Northwest 453 521 37,000  Level Miami Center
Mon 06:10:46 27.7231 -80.2958 336° Northwest 453 521 37,000  Level Miami Center
Mon 06:11:46 27.8386 -80.3556 335° Northwest 458 527 37,000  Level Miami Center
Mon 06:12:46 27.9664 -80.4183 337° Northwest 453 521 37,000  Level Miami Center
Mon 06:13:46 28.0819 -80.4761 336° Northwest 453 521 37,000  Level Miami Center
Mon 06:14:46 28.1850 -80.5289 336° Northwest 453 521 37,000  Level Miami Center
Mon 06:15:46 28.3000 -80.5917 334° Northwest 453 521 37,000  Level Miami Center
Mon 06:18:55 28.6689 -80.7844 335° Northwest 452 520 37,000  Level Jacksonville Center
Mon 06:19:55 28.7867 -80.8436 336° Northwest 446 513 37,000  Level Jacksonville Center
Mon 06:20:55 28.9047 -80.9050 336° Northwest 441 507 37,000  Level Jacksonville Center
Mon 06:21:55 29.0225 -80.9669 335° Northwest 453 521 37,000  Level Jacksonville Center
Mon 06:22:55 29.1403 -81.0286 335° Northwest 458 527 37,000  Level Jacksonville Center
Mon 06:23:55 29.2581 -81.0883 336° Northwest 458 527 37,000  Level Jacksonville Center
Mon 06:24:55 29.3778 -81.1481 337° Northwest 463 533 37,000  Level Jacksonville Center
Mon 06:25:55 29.5061 -81.2175 335° Northwest 463 533 37,000  Level Jacksonville Center
Mon 06:26:55 29.6236 -81.2753 337° Northwest 463 533 37,000  Level Jacksonville Center
Mon 06:27:55 29.7414 -81.3378 335° Northwest 458 527 37,000  Level Jacksonville Center
Mon 06:28:55 29.8589 -81.3958 337° Northwest 464 534 37,000  Level Jacksonville Center
Mon 06:29:55 29.9767 -81.4586 335° Northwest 464 534 37,000  Level Jacksonville Center
Mon 06:30:55 30.0964 -81.5192 336° Northwest 464 534 37,000  Level Jacksonville Center
Mon 06:31:55 30.2139 -81.5778 337° Northwest 464 534 37,000  Level Jacksonville Center
Mon 06:32:55 30.3250 -81.6339 336° Northwest 464 534 37,000  Level Jacksonville Center
Mon 06:33:55 30.4447 -81.6975 335° Northwest 469 540 37,000  Level Jacksonville Center
Mon 06:34:55 30.5642 -81.7611 335° Northwest 463 533 37,000  Level Jacksonville Center
Mon 06:35:55 30.6839 -81.8250 335° Northwest 468 539 37,000  Level Jacksonville Center
Mon 06:36:55 30.8011 -81.8864 336° Northwest 468 539 37,000 -450 Level Jacksonville Center
Mon 06:37:55 30.9186 -81.9506 335° Northwest 463 533 36,100 -1,000 Descending Jacksonville Center
Mon 06:38:55 31.0381 -82.0125 336° Northwest 463 533 35,000 -1,250 Descending Jacksonville Center
Mon 06:39:55 31.1575 -82.0744 336° Northwest 463 533 33,600 -710 Descending Jacksonville Center
Mon 06:41:44 31.3781 -82.1928 335° Northwest 466 536 33,000 -213 Descending Atlanta Center
Mon 06:42:44 31.5000 -82.2561 336° Northwest 471 542 33,000  Level Atlanta Center
Mon 06:43:44 31.6219 -82.3219 335° Northwest 471 542 33,000  Level Atlanta Center
Mon 06:44:44 31.7417 -82.3856 336° Northwest 471 542 33,000  Level Atlanta Center
Mon 06:45:44 31.8617 -82.4519 335° Northwest 471 542 33,000  Level Atlanta Center
Mon 06:46:44 31.9878 -82.5183 336° Northwest 471 542 33,000  Level Atlanta Center
Mon 06:47:44 32.1075 -82.5847 335° Northwest 471 542 33,000  Level Atlanta Center
Mon 06:48:44 32.2292 -82.6492 336° Northwest 471 542 33,000  Level Atlanta Center
Mon 06:49:44 32.3511 -82.7161 335° Northwest 471 542 33,000  Level Atlanta Center
Mon 06:50:44 32.4606 -82.8056 325° Northwest 471 542 33,000  Level Atlanta Center
Mon 06:51:44 32.5472 -82.9200 312° West 468 539 33,000 -600 Level Atlanta Center
Mon 06:52:44 32.6400 -83.0397 313° West 468 539 31,800 -2,150 Descending Atlanta Center
Mon 06:53:44 32.7244 -83.1550 311° West 474 545 28,700 -3,250 Descending Atlanta Center
Mon 06:54:44 32.8233 -83.2850 312° West 474 545 25,300 -2,950 Descending Atlanta Center
Mon 06:55:44 32.9056 -83.3981 311° West 474 545 22,800 -2,500 Descending Atlanta Center
Mon 06:56:44 32.9872 -83.5014 313° West 460 529 20,300 -2,250 Descending Atlanta Center
Mon 06:57:44 33.0483 -83.5853 311° West 439 505 18,300 -2,200 Descending Atlanta Center
Mon 06:58:44 33.1342 -83.6964 313° West 418 481 15,900 -2,150 Descending Atlanta Center
Mon 06:59:44 33.2053 -83.7956 311° West 400 460 14,000 -1,000 Descending Atlanta Center
Mon 07:00:44 33.2722 -83.8922 310° West 388 447 13,900 -950 Descending Atlanta Center
Mon 07:01:44 33.3372 -83.9917 308° West 383 441 12,100 -950 Descending Atlanta Center
Mon 07:02:44 33.3997 -84.0886 308° West 378 435 12,000 -50 Descending Atlanta Center
Mon 07:03:44 33.4686 -84.1933 308° West 378 435 12,000  Level Atlanta Center
Mon 07:04:44 33.5186 -84.2706 308° West 333 383 12,000 -450 Level Atlanta Center
Mon 07:05:44 33.5456 -84.3603 290° West 294 338 11,100 -1,150 Descending Atlanta Center
Mon 07:06:44 33.5453 -84.4575 270° West 287 330 9,700 -1,500 Descending Atlanta Center
Mon 07:07:56 33.5500 -84.5667 273° West 276 318 7,800 -1,571 Descending Atlanta TRACON
Mon 07:08:50 33.5500 -84.6500 270° West 270 311 6,400 -1,842 Descending Atlanta TRACON
Mon 07:09:50 33.5500 -84.7333 270° West 263 303 4,300 -1,617 Descending Atlanta TRACON
Mon 07:10:45 33.5833 -84.7833 309° West 256 295 3,300 -600 Descending Atlanta TRACON
Mon 07:11:50 33.6333 -84.7333 40° Northeast 235 270 3,100 -96 Descending Atlanta TRACON
Mon 07:12:50 33.6333 -84.6667 90° East 200 230 3,100  Level Atlanta TRACON
Mon 07:13:50 33.6333 -84.6000 90° East 198 228 3,100  Level Atlanta TRACON

Login

Don't have an account? Register now (free) for customized features, flight alerts, and more!